createdAt,value
2023-05-04T00:00:28.447Z,95192.00
2023-05-04T00:01:28.440Z,95190.00
2023-05-04T00:02:28.549Z,95188.00
2023-05-04T00:03:28.594Z,95192.00
2023-05-04T00:04:28.448Z,95190.00
2023-05-04T00:05:28.414Z,95192.00
2023-05-04T00:06:28.450Z,95188.00
2023-05-04T00:07:28.456Z,95190.00
2023-05-04T00:08:28.402Z,95188.00
2023-05-04T00:09:28.403Z,95190.00
2023-05-04T00:10:28.369Z,95188.00
2023-05-04T00:11:28.367Z,95188.00
2023-05-04T00:12:28.491Z,95186.00
2023-05-04T00:13:28.356Z,95186.00
2023-05-04T00:14:28.387Z,95186.00
2023-05-04T00:15:28.338Z,95186.00
2023-05-04T00:16:28.391Z,95182.00
2023-05-04T00:17:28.355Z,95180.00
2023-05-04T00:18:28.337Z,95186.00
2023-05-04T00:19:28.337Z,95186.00
2023-05-04T00:20:28.309Z,95182.00
2023-05-04T00:21:28.329Z,95184.00
2023-05-04T00:22:28.314Z,95182.00
2023-05-04T00:23:28.278Z,95182.00
2023-05-04T00:24:28.286Z,95180.00
2023-05-04T00:25:28.284Z,95182.00
2023-05-04T00:26:28.281Z,95180.00
2023-05-04T00:27:28.246Z,95186.00
2023-05-04T00:28:28.252Z,95184.00
2023-05-04T00:29:28.287Z,95184.00
2023-05-04T00:30:28.277Z,95184.00
2023-05-04T00:31:28.245Z,95182.00
2023-05-04T00:32:28.287Z,95184.00
2023-05-04T00:33:28.257Z,95180.00
2023-05-04T00:34:28.224Z,95180.00
2023-05-04T00:35:28.260Z,95180.00
2023-05-04T00:36:28.213Z,95180.00
2023-05-04T00:37:28.224Z,95180.00
2023-05-04T00:38:28.195Z,95184.00
2023-05-04T00:39:28.180Z,95182.00
2023-05-04T00:40:28.185Z,95180.00
2023-05-04T00:41:28.163Z,95182.00
2023-05-04T00:42:28.253Z,95180.00
2023-05-04T00:43:28.152Z,95182.00
2023-05-04T00:44:28.135Z,95182.00
2023-05-04T00:45:28.188Z,95184.00
2023-05-04T00:46:28.178Z,95182.00
2023-05-04T00:47:28.226Z,95184.00
2023-05-04T00:48:28.144Z,95184.00
2023-05-04T00:49:28.130Z,95184.00
2023-05-04T00:50:28.116Z,95182.00
2023-05-04T00:51:28.103Z,95182.00
2023-05-04T00:52:28.116Z,95184.00
2023-05-04T00:53:28.076Z,95182.00
2023-05-04T00:54:28.068Z,95184.00
2023-05-04T00:55:28.076Z,95184.00
2023-05-04T00:56:28.085Z,95182.00
2023-05-04T00:57:28.121Z,95182.00
2023-05-04T00:58:28.116Z,95180.00
2023-05-04T00:59:28.086Z,95182.00
2023-05-04T01:00:28.081Z,95180.00
2023-05-04T01:01:28.139Z,95182.00
2023-05-04T01:02:28.089Z,95177.00
2023-05-04T01:03:28.194Z,95177.00
2023-05-04T01:04:28.053Z,95180.00
2023-05-04T01:05:28.032Z,95180.00
2023-05-04T01:06:28.338Z,95177.00
2023-05-04T01:07:28.061Z,95178.00
2023-05-04T01:08:28.070Z,95178.00
2023-05-04T01:09:28.064Z,95178.00
2023-05-04T01:10:28.013Z,95178.00
2023-05-04T01:11:28.120Z,95178.00
2023-05-04T01:12:28.066Z,95180.00
2023-05-04T01:13:28.012Z,95177.00
2023-05-04T01:14:28.007Z,95177.00
2023-05-04T01:15:27.999Z,95178.00
2023-05-04T01:16:28.041Z,95177.00
2023-05-04T01:17:28.114Z,95177.00
2023-05-04T01:18:28.011Z,95178.00
2023-05-04T01:19:27.983Z,95177.00
2023-05-04T01:20:27.990Z,95178.00
2023-05-04T01:21:28.020Z,95178.00
2023-05-04T01:22:28.019Z,95180.00
2023-05-04T01:23:28.018Z,95182.00
2023-05-04T01:24:28.027Z,95184.00
2023-05-04T01:25:28.032Z,95184.00
2023-05-04T01:26:28.005Z,95180.00
2023-05-04T01:27:28.025Z,95180.00
2023-05-04T01:28:28.064Z,95180.00
2023-05-04T01:29:28.065Z,95178.00
2023-05-04T01:30:28.042Z,95178.00
2023-05-04T01:31:28.078Z,95178.00
2023-05-04T01:32:28.014Z,95180.00
2023-05-04T01:33:28.008Z,95180.00
2023-05-04T01:34:28.007Z,95178.00
2023-05-04T01:35:28.005Z,95180.00
2023-05-04T01:36:27.984Z,95180.00
2023-05-04T01:37:27.995Z,95180.00
2023-05-04T01:38:28.018Z,95180.00
2023-05-04T01:39:27.982Z,95184.00
2023-05-04T01:40:28.039Z,95184.00
2023-05-04T01:41:28.020Z,95184.00
2023-05-04T01:42:28.014Z,95180.00
2023-05-04T01:43:27.978Z,95182.00
2023-05-04T01:44:27.990Z,95182.00
2023-05-04T01:45:27.972Z,95180.00
2023-05-04T01:46:28.044Z,95184.00
2023-05-04T01:47:27.992Z,95182.00
2023-05-04T01:48:28.475Z,95184.00
2023-05-04T01:49:27.986Z,95180.00
2023-05-04T01:50:27.974Z,95184.00
2023-05-04T01:51:27.970Z,95182.00
2023-05-04T01:52:27.952Z,95184.00
2023-05-04T01:53:27.953Z,95182.00
2023-05-04T01:54:27.958Z,95186.00
2023-05-04T01:55:27.980Z,95186.00
2023-05-04T01:56:27.977Z,95184.00
2023-05-04T01:57:27.977Z,95188.00
2023-05-04T01:58:28.037Z,95184.00
2023-05-04T01:59:27.969Z,95186.00
2023-05-04T02:00:27.974Z,95188.00
2023-05-04T02:01:28.048Z,95188.00
2023-05-04T02:02:28.043Z,95188.00
2023-05-04T02:03:28.023Z,95186.00
2023-05-04T02:04:27.955Z,95186.00
2023-05-04T02:05:28.003Z,95188.00
2023-05-04T02:06:27.947Z,95188.00
2023-05-04T02:07:27.980Z,95186.00
2023-05-04T02:08:27.945Z,95186.00
2023-05-04T02:09:27.950Z,95186.00
2023-05-04T02:10:27.959Z,95186.00
2023-05-04T02:11:27.937Z,95186.00
2023-05-04T02:12:27.978Z,95186.00
2023-05-04T02:13:27.985Z,95184.00
2023-05-04T02:14:27.988Z,95184.00
2023-05-04T02:15:28.023Z,95186.00
2023-05-04T02:16:28.014Z,95184.00
2023-05-04T02:17:28.025Z,95184.00
2023-05-04T02:18:28.002Z,95184.00
2023-05-04T02:19:27.996Z,95186.00
2023-05-04T02:20:28.002Z,95188.00
2023-05-04T02:21:28.020Z,95188.00
2023-05-04T02:22:28.043Z,95188.00
2023-05-04T02:23:28.021Z,95188.00
2023-05-04T02:24:28.073Z,95188.00
2023-05-04T02:25:28.046Z,95190.00
2023-05-04T02:26:28.064Z,95190.00
2023-05-04T02:27:28.096Z,95190.00
2023-05-04T02:28:28.079Z,95188.00
2023-05-04T02:29:28.087Z,95190.00
2023-05-04T02:30:28.084Z,95190.00
2023-05-04T02:31:28.158Z,95188.00
2023-05-04T02:32:28.145Z,95188.00
2023-05-04T02:33:28.142Z,95190.00
2023-05-04T02:34:28.164Z,95190.00
2023-05-04T02:35:28.136Z,95190.00
2023-05-04T02:36:28.156Z,95188.00
2023-05-04T02:37:28.172Z,95190.00
2023-05-04T02:38:28.192Z,95192.00
2023-05-04T02:39:28.197Z,95192.00
2023-05-04T02:40:28.212Z,95192.00
2023-05-04T02:41:28.207Z,95190.00
2023-05-04T02:42:28.258Z,95190.00
2023-05-04T02:43:28.246Z,95190.00
2023-05-04T02:44:28.278Z,95188.00
2023-05-04T02:45:28.366Z,95192.00
2023-05-04T02:46:28.287Z,95192.00
2023-05-04T02:47:28.390Z,95190.00
2023-05-04T02:48:28.335Z,95192.00
2023-05-04T02:49:28.343Z,95192.00
2023-05-04T02:50:28.358Z,95190.00
2023-05-04T02:51:28.386Z,95192.00
2023-05-04T02:52:28.381Z,95192.00
2023-05-04T02:53:28.397Z,95192.00
2023-05-04T02:54:28.394Z,95190.00
2023-05-04T02:55:28.469Z,95192.00
2023-05-04T02:56:28.435Z,95192.00
2023-05-04T02:57:28.458Z,95192.00
2023-05-04T02:58:28.472Z,95190.00
2023-05-04T02:59:28.498Z,95190.00
2023-05-04T03:00:28.482Z,95188.00
2023-05-04T03:01:28.543Z,95188.00
2023-05-04T03:02:28.529Z,95188.00
2023-05-04T03:03:28.551Z,95188.00
2023-05-04T03:04:28.629Z,95188.00
2023-05-04T03:05:28.635Z,95190.00
2023-05-04T03:06:28.579Z,95190.00
2023-05-04T03:07:28.630Z,95190.00
2023-05-04T03:08:28.620Z,95188.00
2023-05-04T03:09:28.632Z,95190.00
2023-05-04T03:10:28.692Z,95192.00
2023-05-04T03:11:28.659Z,95192.00
2023-05-04T03:12:28.720Z,95194.00
2023-05-04T03:13:28.702Z,95196.00
2023-05-04T03:14:28.729Z,95196.00
2023-05-04T03:15:28.735Z,95196.00
2023-05-04T03:16:28.758Z,95198.00
2023-05-04T03:17:28.776Z,95200.00
2023-05-04T03:19:48.154Z,95200.00
2023-05-04T03:20:47.955Z,95200.00
2023-05-04T03:21:47.990Z,95200.00
2023-05-04T03:22:47.977Z,95204.00
2023-05-04T03:23:47.968Z,95202.00
2023-05-04T03:24:47.932Z,95204.00
2023-05-04T03:25:47.913Z,95206.00
2023-05-04T03:26:47.903Z,95204.00
2023-05-04T03:27:48.179Z,95206.00
2023-05-04T03:28:47.911Z,95206.00
2023-05-04T03:29:47.929Z,95206.00
2023-05-04T03:30:47.894Z,95208.00
2023-05-04T03:31:47.980Z,95208.00
2023-05-04T03:32:48.223Z,95208.00
2023-05-04T03:33:47.906Z,95208.00
2023-05-04T03:34:47.874Z,95210.00
2023-05-04T03:35:47.873Z,95210.00
2023-05-04T03:36:47.843Z,95210.00
2023-05-04T03:37:47.870Z,95208.00
2023-05-04T03:38:47.847Z,95208.00
2023-05-04T03:39:47.867Z,95208.00
2023-05-04T03:40:47.812Z,95206.00
2023-05-04T03:41:47.809Z,95208.00
2023-05-04T03:42:47.821Z,95208.00
2023-05-04T03:43:47.825Z,95208.00
2023-05-04T03:44:47.799Z,95208.00
2023-05-04T03:45:47.771Z,95208.00
2023-05-04T03:46:47.785Z,95210.00
2023-05-04T03:47:47.833Z,95208.00
2023-05-04T03:48:47.758Z,95208.00
2023-05-04T03:49:47.793Z,95206.00
2023-05-04T03:50:47.735Z,95206.00
2023-05-04T03:51:47.730Z,95208.00
2023-05-04T03:52:47.744Z,95208.00
2023-05-04T03:53:47.727Z,95204.00
2023-05-04T03:54:47.739Z,95204.00
2023-05-04T03:55:47.695Z,95204.00
2023-05-04T03:56:47.729Z,95204.00
2023-05-04T03:57:47.775Z,95202.00
2023-05-04T03:58:47.700Z,95204.00
2023-05-04T03:59:47.665Z,95204.00
2023-05-04T04:00:47.695Z,95204.00
2023-05-04T04:01:47.665Z,95204.00
2023-05-04T04:02:47.857Z,95206.00
2023-05-04T04:03:47.774Z,95206.00
2023-05-04T04:04:47.716Z,95206.00
2023-05-04T04:05:47.620Z,95206.00
2023-05-04T04:06:47.626Z,95206.00
2023-05-04T04:07:47.620Z,95206.00
2023-05-04T04:08:47.633Z,95208.00
2023-05-04T04:09:47.623Z,95210.00
2023-05-04T04:10:47.614Z,95208.00
2023-05-04T04:11:47.610Z,95210.00
2023-05-04T04:12:47.681Z,95212.00
2023-05-04T04:13:47.581Z,95212.00
2023-05-04T04:14:47.568Z,95212.00
2023-05-04T04:15:47.572Z,95210.00
2023-05-04T04:16:47.608Z,95210.00
2023-05-04T04:17:47.587Z,95210.00
2023-05-04T04:18:47.551Z,95210.00
2023-05-04T04:19:47.569Z,95210.00
2023-05-04T04:20:47.547Z,95212.00
2023-05-04T04:21:47.548Z,95210.00
2023-05-04T04:22:47.528Z,95212.00
2023-05-04T04:23:47.561Z,95212.00
2023-05-04T04:24:47.506Z,95210.00
2023-05-04T04:25:47.490Z,95214.00
2023-05-04T04:26:47.512Z,95212.00
2023-05-04T04:27:47.534Z,95214.00
2023-05-04T04:28:47.492Z,95210.00
2023-05-04T04:29:47.453Z,95212.00
2023-05-04T04:30:47.465Z,95212.00
2023-05-04T04:31:47.478Z,95208.00
2023-05-04T04:32:47.484Z,95210.00
2023-05-04T04:33:47.475Z,95212.00
2023-05-04T04:34:47.444Z,95208.00
2023-05-04T04:35:47.422Z,95212.00
2023-05-04T04:36:47.430Z,95206.00
2023-05-04T04:37:47.412Z,95208.00
2023-05-04T04:38:47.417Z,95210.00
2023-05-04T04:39:47.417Z,95210.00
2023-05-04T04:40:47.410Z,95208.00
2023-05-04T04:41:47.375Z,95212.00
2023-05-04T04:42:47.397Z,95210.00
2023-05-04T04:43:47.414Z,95210.00
2023-05-04T04:44:47.436Z,95212.00
2023-05-04T04:45:47.452Z,95208.00
2023-05-04T04:46:47.534Z,95208.00
2023-05-04T04:47:47.539Z,95210.00
2023-05-04T04:48:47.489Z,95212.00
2023-05-04T04:49:47.491Z,95210.00
2023-05-04T04:50:47.536Z,95212.00
2023-05-04T04:51:47.554Z,95212.00
2023-05-04T04:52:47.591Z,95214.00
2023-05-04T04:53:47.593Z,95212.00
2023-05-04T04:54:47.618Z,95214.00
2023-05-04T04:55:47.584Z,95214.00
2023-05-04T04:56:47.611Z,95214.00
2023-05-04T04:57:47.630Z,95218.00
2023-05-04T04:58:47.636Z,95216.00
2023-05-04T04:59:47.659Z,95218.00
2023-05-04T05:00:47.735Z,95220.00
2023-05-04T05:01:47.713Z,95220.00
2023-05-04T05:02:47.742Z,95220.00
2023-05-04T05:03:47.694Z,95220.00
2023-05-04T05:04:47.734Z,95220.00
2023-05-04T05:05:47.670Z,95220.00
2023-05-04T05:06:47.677Z,95218.00
2023-05-04T05:07:47.737Z,95220.00
2023-05-04T05:08:47.739Z,95220.00
2023-05-04T05:09:47.695Z,95220.00
2023-05-04T05:10:47.651Z,95220.00
2023-05-04T05:11:47.697Z,95224.00
2023-05-04T05:12:47.723Z,95220.00
2023-05-04T05:13:47.773Z,95220.00
2023-05-04T05:14:47.709Z,95220.00
2023-05-04T05:15:47.768Z,95224.00
2023-05-04T05:16:47.748Z,95220.00
2023-05-04T05:17:47.886Z,95224.00
2023-05-04T05:18:47.828Z,95222.00
2023-05-04T05:19:47.767Z,95220.00
2023-05-04T05:20:47.791Z,95222.00
2023-05-04T05:21:47.810Z,95222.00
2023-05-04T05:22:47.835Z,95220.00
2023-05-04T05:23:47.861Z,95224.00
2023-05-04T05:24:47.969Z,95218.00
2023-05-04T05:25:48.026Z,95220.00
2023-05-04T05:26:47.982Z,95216.00
2023-05-04T05:27:47.873Z,95216.00
2023-05-04T05:28:47.884Z,95216.00
2023-05-04T05:29:47.858Z,95218.00
2023-05-04T05:30:47.988Z,95214.00
2023-05-04T05:31:47.893Z,95214.00
2023-05-04T05:32:49.423Z,95214.00
2023-05-04T05:33:47.957Z,95212.00
2023-05-04T05:34:48.814Z,95212.00
2023-05-04T05:35:48.008Z,95208.00
2023-05-04T05:36:47.931Z,95212.00
2023-05-04T05:37:48.313Z,95212.00
2023-05-04T05:38:50.290Z,95212.00
2023-05-04T05:39:47.999Z,95212.00
2023-05-04T05:40:48.047Z,95214.00
2023-05-04T05:41:48.076Z,95214.00
2023-05-04T05:42:48.164Z,95212.00
2023-05-04T05:43:48.117Z,95208.00
2023-05-04T05:44:48.302Z,95208.00
2023-05-04T05:45:48.188Z,95208.00
2023-05-04T05:46:48.205Z,95210.00
2023-05-04T05:47:48.376Z,95214.00
2023-05-04T05:48:48.212Z,95208.00
2023-05-04T05:49:48.290Z,95208.00
2023-05-04T05:50:48.356Z,95212.00
2023-05-04T05:51:48.359Z,95210.00
2023-05-04T05:52:48.397Z,95212.00
2023-05-04T05:53:48.474Z,95212.00
2023-05-04T05:54:48.498Z,95210.00
2023-05-04T05:55:48.595Z,95212.00
2023-05-04T05:56:48.612Z,95210.00
2023-05-04T05:57:48.768Z,95210.00
2023-05-04T05:58:48.663Z,95212.00
2023-05-04T05:59:48.730Z,95206.00
2023-05-04T06:00:48.790Z,95208.00
2023-05-04T06:01:48.858Z,95210.00
2023-05-04T06:02:49.005Z,95208.00
2023-05-04T06:03:49.032Z,95208.00
2023-05-04T06:04:49.093Z,95208.00
2023-05-04T06:05:49.031Z,95208.00
2023-05-04T06:06:49.103Z,95202.00
2023-05-04T06:07:49.154Z,95202.00
2023-05-04T06:08:49.036Z,95204.00
2023-05-04T06:09:49.071Z,95202.00
2023-05-04T06:10:49.074Z,95204.00
2023-05-04T06:11:49.108Z,95204.00
2023-05-04T06:12:49.237Z,95204.00
2023-05-04T06:13:49.319Z,95202.00
2023-05-04T06:14:49.358Z,95204.00
2023-05-04T06:15:49.382Z,95202.00
2023-05-04T06:16:49.501Z,95208.00
2023-05-04T06:17:49.604Z,95204.00
2023-05-04T06:18:49.539Z,95204.00
2023-05-04T06:19:51.021Z,95206.00
2023-05-04T06:20:49.600Z,95204.00
2023-05-04T06:21:49.743Z,95204.00
2023-05-04T06:22:49.755Z,95204.00
2023-05-04T06:23:49.703Z,95198.00
2023-05-04T06:24:49.745Z,95198.00
2023-05-04T06:25:49.784Z,95200.00
2023-05-04T06:26:49.835Z,95198.00
2023-05-04T06:27:49.849Z,95196.00
2023-05-04T06:28:49.866Z,95194.00
2023-05-04T06:29:49.900Z,95196.00
2023-05-04T06:30:49.962Z,95196.00
2023-05-04T06:31:50.021Z,95194.00
2023-05-04T06:32:49.993Z,95190.00
2023-05-04T06:33:50.022Z,95184.00
2023-05-04T06:34:50.063Z,95184.00
2023-05-04T06:35:50.720Z,95184.00
2023-05-04T06:36:52.822Z,95184.00
2023-05-04T06:38:50.216Z,95180.00
2023-05-04T06:39:50.117Z,95180.00
2023-05-04T06:40:50.739Z,95178.00
2023-05-04T06:41:50.109Z,95178.00
2023-05-04T06:42:50.249Z,95178.00
2023-05-04T06:43:50.147Z,95178.00
2023-05-04T06:44:50.158Z,95177.00
2023-05-04T06:45:50.113Z,95177.00
2023-05-04T06:46:50.090Z,95175.00
2023-05-04T06:47:50.186Z,95171.00
2023-05-04T06:48:50.070Z,95173.00
2023-05-04T06:49:50.049Z,95163.00
2023-05-04T06:50:50.066Z,95171.00
2023-05-04T06:51:50.098Z,95161.00
2023-05-04T06:52:50.031Z,95163.00
2023-05-04T06:53:50.024Z,95157.00
2023-05-04T06:54:50.124Z,95159.00
2023-05-04T06:55:50.016Z,95157.00
2023-05-04T06:56:49.985Z,95159.00
2023-05-04T06:57:49.995Z,95155.00
2023-05-04T06:58:50.004Z,95155.00
2023-05-04T06:59:49.994Z,95153.00
2023-05-04T07:00:50.011Z,95153.00
2023-05-04T07:01:49.971Z,95151.00
2023-05-04T07:02:50.038Z,95153.00
2023-05-04T07:03:50.075Z,95153.00
2023-05-04T07:04:49.930Z,95153.00
2023-05-04T07:05:50.014Z,95153.00
2023-05-04T07:06:50.011Z,95151.00
2023-05-04T07:07:51.295Z,95149.00
2023-05-04T07:08:49.948Z,95149.00
2023-05-04T07:09:49.932Z,95149.00
2023-05-04T07:10:49.883Z,95147.00
2023-05-04T07:11:49.893Z,95149.00
2023-05-04T07:12:49.982Z,95147.00
2023-05-04T07:13:49.867Z,95147.00
2023-05-04T07:14:49.852Z,95143.00
2023-05-04T07:15:49.861Z,95143.00
2023-05-04T07:16:49.885Z,95139.00
2023-05-04T07:17:49.994Z,95141.00
2023-05-04T07:18:49.858Z,95139.00
2023-05-04T07:19:49.820Z,95137.00
2023-05-04T07:20:49.829Z,95135.00
2023-05-04T07:21:49.830Z,95137.00
2023-05-04T07:22:49.834Z,95135.00
2023-05-04T07:23:49.826Z,95133.00
2023-05-04T07:24:49.913Z,95133.00
2023-05-04T07:25:50.345Z,95135.00
2023-05-04T07:26:49.883Z,95135.00
2023-05-04T07:27:49.816Z,95133.00
2023-05-04T07:28:49.825Z,95133.00
2023-05-04T07:29:49.830Z,95135.00
2023-05-04T07:30:49.892Z,95132.00
2023-05-04T07:31:49.781Z,95132.00
2023-05-04T07:32:49.847Z,95130.00
2023-05-04T07:33:49.743Z,95132.00
2023-05-04T07:34:49.837Z,95124.00
2023-05-04T07:35:49.777Z,95128.00
2023-05-04T07:36:49.770Z,95126.00
2023-05-04T07:37:49.726Z,95124.00
2023-05-04T07:38:49.714Z,95124.00
2023-05-04T07:39:49.702Z,95122.00
2023-05-04T07:40:49.695Z,95118.00
2023-05-04T07:41:49.753Z,95116.00
2023-05-04T07:42:49.743Z,95118.00
2023-05-04T07:43:49.701Z,95112.00
2023-05-04T07:44:49.921Z,95110.00
2023-05-04T07:45:49.739Z,95108.00
2023-05-04T07:46:49.748Z,95102.00
2023-05-04T07:47:50.626Z,95102.00
2023-05-04T07:48:49.664Z,95102.00
2023-05-04T07:49:49.625Z,95100.00
2023-05-04T07:50:49.608Z,95098.00
2023-05-04T07:51:49.598Z,95096.00
2023-05-04T07:52:49.662Z,95096.00
2023-05-04T07:53:49.573Z,95096.00
2023-05-04T07:54:49.587Z,95092.00
2023-05-04T07:55:49.581Z,95092.00
2023-05-04T07:56:49.661Z,95088.00
2023-05-04T07:57:49.600Z,95088.00
2023-05-04T07:58:49.587Z,95086.00
2023-05-04T07:59:49.614Z,95085.00
2023-05-04T08:00:49.587Z,95083.00
2023-05-04T08:01:49.589Z,95080.00
2023-05-04T08:02:49.738Z,95078.00
2023-05-04T08:03:49.602Z,95078.00
2023-05-04T08:04:49.605Z,95077.00
2023-05-04T08:05:49.573Z,95073.00
2023-05-04T08:06:49.676Z,95073.00
2023-05-04T08:07:49.605Z,95073.00
2023-05-04T08:08:52.005Z,95069.00
2023-05-04T08:09:49.576Z,95069.00
2023-05-04T08:10:49.576Z,95069.00
2023-05-04T08:11:49.648Z,95067.00
2023-05-04T08:12:49.626Z,95069.00
2023-05-04T08:13:49.847Z,95065.00
2023-05-04T08:14:49.554Z,95067.00
2023-05-04T08:15:49.551Z,95063.00
2023-05-04T08:16:49.533Z,95065.00
2023-05-04T08:17:49.538Z,95065.00
2023-05-04T08:18:49.549Z,95061.00
2023-05-04T08:19:49.531Z,95063.00
2023-05-04T08:20:49.524Z,95063.00
2023-05-04T08:21:49.587Z,95061.00
2023-05-04T08:22:49.759Z,95061.00
2023-05-04T08:23:49.486Z,95061.00
2023-05-04T08:24:49.479Z,95061.00
2023-05-04T08:25:49.463Z,95061.00
2023-05-04T08:26:59.783Z,95057.00
2023-05-04T08:27:50.762Z,95063.00
2023-05-04T08:28:49.767Z,95061.00
2023-05-04T08:29:49.468Z,95061.00
2023-05-04T08:30:49.440Z,95061.00
2023-05-04T08:31:49.481Z,95059.00
2023-05-04T08:32:49.462Z,95057.00
2023-05-04T08:33:49.406Z,95059.00
2023-05-04T08:34:49.388Z,95055.00
2023-05-04T08:35:49.408Z,95059.00
2023-05-04T08:36:49.427Z,95057.00
2023-05-04T08:37:49.887Z,95057.00
2023-05-04T08:38:49.809Z,95059.00
2023-05-04T08:39:49.531Z,95059.00
2023-05-04T08:40:50.549Z,95057.00
2023-05-04T08:41:49.596Z,95055.00
2023-05-04T08:42:49.633Z,95055.00
2023-05-04T08:43:49.778Z,95053.00
2023-05-04T08:44:49.755Z,95049.00
2023-05-04T08:45:49.840Z,95053.00
2023-05-04T08:46:49.860Z,95049.00
2023-05-04T08:47:50.137Z,95047.00
2023-05-04T08:48:50.020Z,95047.00
2023-05-04T08:49:50.031Z,95051.00
2023-05-04T08:50:50.103Z,95047.00
2023-05-04T08:51:50.143Z,95049.00
2023-05-04T08:52:50.202Z,95053.00
2023-05-04T08:53:50.309Z,95047.00
2023-05-04T08:54:50.317Z,95047.00
2023-05-04T08:55:50.395Z,95047.00
2023-05-04T08:56:50.454Z,95043.00
2023-05-04T08:57:51.183Z,95047.00
2023-05-04T08:58:50.564Z,95041.00
2023-05-04T08:59:50.629Z,95038.00
2023-05-04T09:00:50.729Z,95039.00
2023-05-04T09:01:50.789Z,95039.00
2023-05-04T09:02:50.838Z,95041.00
2023-05-04T09:03:51.003Z,95038.00
2023-05-04T09:04:50.870Z,95038.00
2023-05-04T09:05:50.941Z,95036.00
2023-05-04T09:06:50.969Z,95034.00
2023-05-04T09:07:51.077Z,95034.00
2023-05-04T09:08:51.103Z,95030.00
2023-05-04T09:09:51.109Z,95030.00
2023-05-04T09:10:51.144Z,95026.00
2023-05-04T09:11:51.215Z,95016.00
2023-05-04T09:12:51.252Z,95024.00
2023-05-04T09:13:51.345Z,95024.00
2023-05-04T09:14:51.370Z,95018.00
2023-05-04T09:15:51.429Z,95016.00
2023-05-04T09:16:51.391Z,95018.00
2023-05-04T09:18:52.765Z,95014.00
2023-05-04T09:19:51.399Z,95010.00
2023-05-04T09:20:51.369Z,95008.00
2023-05-04T09:21:51.388Z,95008.00
2023-05-04T09:22:51.459Z,95006.00
2023-05-04T09:23:51.679Z,95002.00
2023-05-04T09:24:51.336Z,95004.00
2023-05-04T09:25:51.341Z,95002.00
2023-05-04T09:26:51.306Z,94998.00
2023-05-04T09:27:51.338Z,94998.00
2023-05-04T09:28:51.301Z,94994.00
2023-05-04T09:29:54.354Z,94996.00
2023-05-04T09:30:51.316Z,94996.00
2023-05-04T09:31:51.304Z,94994.00
2023-05-04T09:32:51.359Z,94994.00
2023-05-04T09:33:53.380Z,94994.00
2023-05-04T09:34:51.289Z,94991.00
2023-05-04T09:35:51.296Z,94992.00
2023-05-04T09:36:51.311Z,94994.00
2023-05-04T09:37:51.319Z,94994.00
2023-05-04T09:38:51.246Z,94991.00
2023-05-04T09:39:51.287Z,94987.00
2023-05-04T09:40:51.295Z,94985.00
2023-05-04T09:41:51.304Z,94983.00
2023-05-04T09:42:51.292Z,94983.00
2023-05-04T09:43:51.285Z,94979.00
2023-05-04T09:44:51.263Z,94983.00
2023-05-04T09:45:51.401Z,94979.00
2023-05-04T09:46:51.323Z,94979.00
2023-05-04T09:47:51.389Z,94979.00
2023-05-04T09:48:51.437Z,94977.00
2023-05-04T09:49:51.310Z,94975.00
2023-05-04T09:50:51.315Z,94975.00
2023-05-04T09:51:51.314Z,94975.00
2023-05-04T09:52:51.380Z,94971.00
2023-05-04T09:53:51.375Z,94971.00
2023-05-04T09:54:51.323Z,94969.00
2023-05-04T09:55:51.350Z,94967.00
2023-05-04T09:56:51.382Z,94969.00
2023-05-04T09:57:51.391Z,94969.00
2023-05-04T09:58:51.328Z,94967.00
2023-05-04T09:59:51.321Z,94965.00
2023-05-04T10:00:51.339Z,94965.00
2023-05-04T10:01:51.349Z,94965.00
2023-05-04T10:02:51.354Z,94963.00
2023-05-04T10:03:51.333Z,94959.00
2023-05-04T10:04:51.311Z,94959.00
2023-05-04T10:05:51.436Z,94957.00
2023-05-04T10:06:51.304Z,94955.00
2023-05-04T10:07:51.297Z,94951.00
2023-05-04T10:08:51.320Z,94951.00
2023-05-04T10:09:51.418Z,94949.00
2023-05-04T10:10:51.329Z,94947.00
2023-05-04T10:11:51.335Z,94945.00
2023-05-04T10:12:51.338Z,94945.00
2023-05-04T10:13:51.308Z,94944.00
2023-05-04T10:14:51.277Z,94942.00
2023-05-04T10:15:51.296Z,94940.00
2023-05-04T10:16:51.293Z,94938.00
2023-05-04T10:17:51.310Z,94936.00
2023-05-04T10:18:51.322Z,94938.00
2023-05-04T10:19:51.320Z,94934.00
2023-05-04T10:20:51.262Z,94932.00
2023-05-04T10:21:51.271Z,94932.00
2023-05-04T10:22:51.265Z,94924.00
2023-05-04T10:23:51.242Z,94926.00
2023-05-04T10:24:51.544Z,94922.00
2023-05-04T10:25:51.246Z,94922.00
2023-05-04T10:26:51.243Z,94920.00
2023-05-04T10:27:51.238Z,94916.00
2023-05-04T10:28:51.282Z,94916.00
2023-05-04T10:29:51.255Z,94918.00
2023-05-04T10:30:51.233Z,94920.00
2023-05-04T10:31:51.346Z,94918.00
2023-05-04T10:32:51.382Z,94916.00
2023-05-04T10:33:51.231Z,94916.00
2023-05-04T10:34:51.244Z,94916.00
2023-05-04T10:35:51.248Z,94914.00
2023-05-04T10:36:51.316Z,94914.00
2023-05-04T10:37:51.220Z,94914.00
2023-05-04T10:38:51.220Z,94904.00
2023-05-04T10:39:51.329Z,94902.00
2023-05-04T10:40:51.221Z,94900.00
2023-05-04T10:41:51.226Z,94900.00
2023-05-04T10:42:51.252Z,94891.00
2023-05-04T10:43:51.259Z,94891.00
2023-05-04T10:44:51.233Z,94889.00
2023-05-04T10:45:51.417Z,94889.00
2023-05-04T10:46:51.236Z,94889.00
2023-05-04T10:47:51.284Z,94883.00
2023-05-04T10:48:51.395Z,94883.00
2023-05-04T10:49:51.279Z,94881.00
2023-05-04T10:50:51.335Z,94879.00
2023-05-04T10:51:51.344Z,94877.00
2023-05-04T10:52:51.334Z,94873.00
2023-05-04T10:53:51.430Z,94873.00
2023-05-04T10:54:51.434Z,94871.00
2023-05-04T10:55:52.361Z,94869.00
2023-05-04T10:56:51.453Z,94867.00
2023-05-04T10:57:51.486Z,94863.00
2023-05-04T10:58:51.508Z,94859.00
2023-05-04T10:59:51.536Z,94861.00
2023-05-04T11:00:51.722Z,94859.00
2023-05-04T11:01:51.562Z,94857.00
2023-05-04T11:02:51.668Z,94857.00
2023-05-04T11:03:51.687Z,94857.00
2023-05-04T11:04:51.645Z,94855.00
2023-05-04T11:05:51.606Z,94850.00
2023-05-04T11:06:51.663Z,94850.00
2023-05-04T11:07:51.798Z,94848.00
2023-05-04T11:08:51.716Z,94848.00
2023-05-04T11:09:51.674Z,94846.00
2023-05-04T11:10:51.740Z,94846.00
2023-05-04T11:11:51.752Z,94844.00
2023-05-04T11:12:51.823Z,94844.00
2023-05-04T11:13:51.791Z,94838.00
2023-05-04T11:14:51.941Z,94838.00
2023-05-04T11:15:51.905Z,94836.00
2023-05-04T11:16:51.953Z,94834.00
2023-05-04T11:17:52.161Z,94834.00
2023-05-04T11:18:51.982Z,94832.00
2023-05-04T11:19:52.050Z,94832.00
2023-05-04T11:20:51.997Z,94828.00
2023-05-04T11:21:52.008Z,94828.00
2023-05-04T11:22:52.052Z,94826.00
2023-05-04T11:23:52.088Z,94824.00
2023-05-04T11:24:53.300Z,94826.00
2023-05-04T11:25:52.077Z,94826.00
2023-05-04T11:26:52.129Z,94826.00
2023-05-04T11:27:52.119Z,94822.00
2023-05-04T11:28:52.182Z,94826.00
2023-05-04T11:29:52.183Z,94822.00
2023-05-04T11:30:53.774Z,94820.00
2023-05-04T11:31:52.237Z,94822.00
2023-05-04T11:32:52.147Z,94818.00
2023-05-04T11:33:52.197Z,94820.00
2023-05-04T11:34:52.126Z,94818.00
2023-05-04T11:35:52.259Z,94818.00
2023-05-04T11:36:52.122Z,94818.00
2023-05-04T11:37:52.089Z,94818.00
2023-05-04T11:38:52.335Z,94816.00
2023-05-04T11:39:52.121Z,94812.00
2023-05-04T11:40:52.095Z,94812.00
2023-05-04T11:41:52.119Z,94812.00
2023-05-04T11:42:53.248Z,94812.00
2023-05-04T11:43:52.344Z,94806.00
2023-05-04T11:44:52.121Z,94808.00
2023-05-04T11:45:52.055Z,94805.00
2023-05-04T11:46:52.169Z,94803.00
2023-05-04T11:47:52.079Z,94803.00